sensor_id;sensor_type;location;lat;lon;timestamp;P1;durP1;ratioP1;P2;durP2;ratioP2
13345;SDS011;6742;48.036;15.780;2022-10-28T00:01:29;11.70;;;10.60;;
13345;SDS011;6742;48.036;15.780;2022-10-28T00:03:56;11.52;;;10.52;;
13345;SDS011;6742;48.036;15.780;2022-10-28T00:06:27;12.10;;;10.90;;
13345;SDS011;6742;48.036;15.780;2022-10-28T00:08:56;11.75;;;10.73;;
13345;SDS011;6742;48.036;15.780;2022-10-28T00:11:24;11.60;;;10.60;;
13345;SDS011;6742;48.036;15.780;2022-10-28T00:13:52;10.38;;;9.50;;
13345;SDS011;6742;48.036;15.780;2022-10-28T00:16:19;10.85;;;9.95;;
13345;SDS011;6742;48.036;15.780;2022-10-28T00:18:48;11.40;;;10.40;;
13345;SDS011;6742;48.036;15.780;2022-10-28T00:21:18;11.00;;;10.20;;
13345;SDS011;6742;48.036;15.780;2022-10-28T00:23:52;12.00;;;10.90;;
13345;SDS011;6742;48.036;15.780;2022-10-28T00:26:19;10.27;;;9.40;;
13345;SDS011;6742;48.036;15.780;2022-10-28T00:28:48;10.33;;;9.53;;
13345;SDS011;6742;48.036;15.780;2022-10-28T00:31:17;10.75;;;9.85;;
13345;SDS011;6742;48.036;15.780;2022-10-28T00:33:46;10.80;;;9.95;;
13345;SDS011;6742;48.036;15.780;2022-10-28T00:36:14;10.73;;;9.93;;
13345;SDS011;6742;48.036;15.780;2022-10-28T00:38:42;10.70;;;9.80;;
13345;SDS011;6742;48.036;15.780;2022-10-28T00:41:15;11.23;;;10.23;;
13345;SDS011;6742;48.036;15.780;2022-10-28T00:43:45;11.43;;;10.33;;
13345;SDS011;6742;48.036;15.780;2022-10-28T00:46:15;11.02;;;10.13;;
13345;SDS011;6742;48.036;15.780;2022-10-28T00:48:46;10.98;;;10.18;;
13345;SDS011;6742;48.036;15.780;2022-10-28T00:51:16;12.13;;;11.15;;
13345;SDS011;6742;48.036;15.780;2022-10-28T00:53:46;11.02;;;10.23;;
13345;SDS011;6742;48.036;15.780;2022-10-28T00:56:14;10.30;;;9.40;;
13345;SDS011;6742;48.036;15.780;2022-10-28T00:58:43;10.70;;;9.90;;
13345;SDS011;6742;48.036;15.780;2022-10-28T01:01:13;10.93;;;9.93;;
13345;SDS011;6742;48.036;15.780;2022-10-28T01:03:40;10.70;;;9.90;;
13345;SDS011;6742;48.036;15.780;2022-10-28T01:06:07;10.60;;;9.65;;
13345;SDS011;6742;48.036;15.780;2022-10-28T01:08:34;10.27;;;9.48;;
13345;SDS011;6742;48.036;15.780;2022-10-28T01:11:12;10.35;;;9.55;;
13345;SDS011;6742;48.036;15.780;2022-10-28T01:14:19;11.55;;;10.48;;
13345;SDS011;6742;48.036;15.780;2022-10-28T01:20:16;10.30;;;9.45;;
13345;SDS011;6742;48.036;15.780;2022-10-28T01:23:08;10.38;;;9.57;;
13345;SDS011;6742;48.036;15.780;2022-10-28T01:25:46;10.65;;;9.85;;
13345;SDS011;6742;48.036;15.780;2022-10-28T01:28:50;10.10;;;9.30;;
13345;SDS011;6742;48.036;15.780;2022-10-28T01:31:34;9.35;;;8.70;;
13345;SDS011;6742;48.036;15.780;2022-10-28T01:34:08;10.02;;;9.25;;
13345;SDS011;6742;48.036;15.780;2022-10-28T01:36:44;10.15;;;9.45;;
13345;SDS011;6742;48.036;15.780;2022-10-28T01:39:20;10.10;;;9.40;;
13345;SDS011;6742;48.036;15.780;2022-10-28T01:41:54;10.48;;;9.77;;
13345;SDS011;6742;48.036;15.780;2022-10-28T01:44:26;10.00;;;9.30;;
13345;SDS011;6742;48.036;15.780;2022-10-28T01:47:00;9.90;;;9.20;;
13345;SDS011;6742;48.036;15.780;2022-10-28T01:49:35;10.10;;;9.32;;
13345;SDS011;6742;48.036;15.780;2022-10-28T01:52:08;10.45;;;9.65;;
13345;SDS011;6742;48.036;15.780;2022-10-28T01:54:38;9.95;;;9.25;;
13345;SDS011;6742;48.036;15.780;2022-10-28T01:57:08;9.30;;;8.60;;
13345;SDS011;6742;48.036;15.780;2022-10-28T01:59:37;9.60;;;8.85;;
13345;SDS011;6742;48.036;15.780;2022-10-28T02:02:07;9.40;;;8.70;;
13345;SDS011;6742;48.036;15.780;2022-10-28T02:04:34;9.70;;;9.00;;
13345;SDS011;6742;48.036;15.780;2022-10-28T02:07:01;9.18;;;8.48;;
13345;SDS011;6742;48.036;15.780;2022-10-28T02:09:33;9.88;;;9.18;;
13345;SDS011;6742;48.036;15.780;2022-10-28T02:12:19;9.55;;;8.85;;
13345;SDS011;6742;48.036;15.780;2022-10-28T02:17:58;9.95;;;9.23;;
13345;SDS011;6742;48.036;15.780;2022-10-28T02:20:42;9.55;;;8.85;;
13345;SDS011;6742;48.036;15.780;2022-10-28T02:23:19;9.27;;;8.68;;
13345;SDS011;6742;48.036;15.780;2022-10-28T02:25:53;9.50;;;8.80;;
13345;SDS011;6742;48.036;15.780;2022-10-28T02:28:24;9.60;;;8.80;;
13345;SDS011;6742;48.036;15.780;2022-10-28T02:31:05;10.55;;;9.85;;
13345;SDS011;6742;48.036;15.780;2022-10-28T02:33:37;8.90;;;8.20;;
13345;SDS011;6742;48.036;15.780;2022-10-28T02:36:07;7.50;;;7.00;;
13345;SDS011;6742;48.036;15.780;2022-10-28T02:38:39;9.57;;;8.77;;
13345;SDS011;6742;48.036;15.780;2022-10-28T02:41:11;9.80;;;9.10;;
13345;SDS011;6742;48.036;15.780;2022-10-28T02:43:42;9.13;;;8.43;;
13345;SDS011;6742;48.036;15.780;2022-10-28T02:46:10;9.48;;;8.88;;
13345;SDS011;6742;48.036;15.780;2022-10-28T02:48:42;10.18;;;9.57;;
13345;SDS011;6742;48.036;15.780;2022-10-28T02:51:13;9.98;;;9.27;;
13345;SDS011;6742;48.036;15.780;2022-10-28T02:53:46;11.13;;;10.23;;
13345;SDS011;6742;48.036;15.780;2022-10-28T02:56:20;10.10;;;9.50;;
13345;SDS011;6742;48.036;15.780;2022-10-28T02:58:47;9.38;;;8.77;;
13345;SDS011;6742;48.036;15.780;2022-10-28T03:01:14;9.35;;;8.65;;
13345;SDS011;6742;48.036;15.780;2022-10-28T03:03:43;9.98;;;9.18;;
13345;SDS011;6742;48.036;15.780;2022-10-28T03:06:10;10.18;;;9.45;;
13345;SDS011;6742;48.036;15.780;2022-10-28T03:08:37;9.35;;;8.65;;
13345;SDS011;6742;48.036;15.780;2022-10-28T03:11:04;9.43;;;8.70;;
13345;SDS011;6742;48.036;15.780;2022-10-28T03:13:31;9.00;;;8.50;;
13345;SDS011;6742;48.036;15.780;2022-10-28T03:15:58;9.23;;;8.60;;
13345;SDS011;6742;48.036;15.780;2022-10-28T03:18:25;8.88;;;8.27;;
13345;SDS011;6742;48.036;15.780;2022-10-28T03:20:53;7.85;;;7.35;;
13345;SDS011;6742;48.036;15.780;2022-10-28T03:23:20;8.57;;;7.90;;
13345;SDS011;6742;48.036;15.780;2022-10-28T03:25:47;8.37;;;7.87;;
13345;SDS011;6742;48.036;15.780;2022-10-28T03:28:14;8.23;;;7.72;;
13345;SDS011;6742;48.036;15.780;2022-10-28T03:30:41;8.20;;;7.70;;
13345;SDS011;6742;48.036;15.780;2022-10-28T03:33:08;8.20;;;7.70;;
13345;SDS011;6742;48.036;15.780;2022-10-28T03:35:35;8.40;;;7.90;;
13345;SDS011;6742;48.036;15.780;2022-10-28T03:38:03;8.77;;;8.25;;
13345;SDS011;6742;48.036;15.780;2022-10-28T03:40:30;8.10;;;7.60;;
13345;SDS011;6742;48.036;15.780;2022-10-28T03:42:58;7.83;;;7.33;;
13345;SDS011;6742;48.036;15.780;2022-10-28T03:45:25;8.18;;;7.68;;
13345;SDS011;6742;48.036;15.780;2022-10-28T03:47:52;7.73;;;7.33;;
13345;SDS011;6742;48.036;15.780;2022-10-28T03:50:19;7.95;;;7.45;;
13345;SDS011;6742;48.036;15.780;2022-10-28T03:52:46;8.30;;;7.73;;
13345;SDS011;6742;48.036;15.780;2022-10-28T03:55:14;8.10;;;7.60;;
13345;SDS011;6742;48.036;15.780;2022-10-28T03:57:41;7.57;;;7.18;;
13345;SDS011;6742;48.036;15.780;2022-10-28T04:00:09;7.78;;;7.38;;
13345;SDS011;6742;48.036;15.780;2022-10-28T04:02:36;7.60;;;7.20;;
13345;SDS011;6742;48.036;15.780;2022-10-28T04:05:06;7.45;;;7.05;;
13345;SDS011;6742;48.036;15.780;2022-10-28T04:07:34;7.38;;;6.97;;
13345;SDS011;6742;48.036;15.780;2022-10-28T04:10:01;7.45;;;7.05;;
13345;SDS011;6742;48.036;15.780;2022-10-28T04:12:29;7.22;;;6.80;;
13345;SDS011;6742;48.036;15.780;2022-10-28T04:14:56;7.15;;;6.75;;
13345;SDS011;6742;48.036;15.780;2022-10-28T04:17:23;7.40;;;7.00;;
13345;SDS011;6742;48.036;15.780;2022-10-28T04:19:50;7.50;;;7.00;;
13345;SDS011;6742;48.036;15.780;2022-10-28T04:22:17;7.20;;;6.80;;
13345;SDS011;6742;48.036;15.780;2022-10-28T04:24:44;7.20;;;6.72;;
13345;SDS011;6742;48.036;15.780;2022-10-28T04:27:10;7.28;;;6.82;;
13345;SDS011;6742;48.036;15.780;2022-10-28T04:29:39;6.97;;;6.57;;
13345;SDS011;6742;48.036;15.780;2022-10-28T04:32:07;7.25;;;6.75;;
13345;SDS011;6742;48.036;15.780;2022-10-28T04:34:34;6.95;;;6.45;;
13345;SDS011;6742;48.036;15.780;2022-10-28T04:37:01;6.63;;;6.22;;
13345;SDS011;6742;48.036;15.780;2022-10-28T04:39:28;7.13;;;6.60;;
13345;SDS011;6742;48.036;15.780;2022-10-28T04:41:55;6.80;;;6.30;;
13345;SDS011;6742;48.036;15.780;2022-10-28T04:44:22;7.05;;;6.65;;
13345;SDS011;6742;48.036;15.780;2022-10-28T04:46:50;6.47;;;6.10;;
13345;SDS011;6742;48.036;15.780;2022-10-28T04:49:17;6.50;;;6.20;;
13345;SDS011;6742;48.036;15.780;2022-10-28T04:51:44;6.55;;;6.22;;
13345;SDS011;6742;48.036;15.780;2022-10-28T04:54:11;6.43;;;6.13;;
13345;SDS011;6742;48.036;15.780;2022-10-28T04:56:38;6.20;;;5.90;;
13345;SDS011;6742;48.036;15.780;2022-10-28T04:59:05;6.00;;;5.70;;
13345;SDS011;6742;48.036;15.780;2022-10-28T05:01:32;6.15;;;5.85;;
13345;SDS011;6742;48.036;15.780;2022-10-28T05:04:00;6.07;;;5.78;;
13345;SDS011;6742;48.036;15.780;2022-10-28T05:06:27;6.72;;;6.32;;
13345;SDS011;6742;48.036;15.780;2022-10-28T05:08:54;6.80;;;6.40;;
13345;SDS011;6742;48.036;15.780;2022-10-28T05:11:21;7.72;;;7.22;;
13345;SDS011;6742;48.036;15.780;2022-10-28T05:13:48;7.30;;;6.80;;
13345;SDS011;6742;48.036;15.780;2022-10-28T05:16:17;7.45;;;6.95;;
13345;SDS011;6742;48.036;15.780;2022-10-28T05:18:44;7.28;;;6.78;;
13345;SDS011;6742;48.036;15.780;2022-10-28T05:21:12;7.07;;;6.63;;
13345;SDS011;6742;48.036;15.780;2022-10-28T05:23:39;6.53;;;6.05;;
13345;SDS011;6742;48.036;15.780;2022-10-28T05:26:06;6.70;;;6.35;;
13345;SDS011;6742;48.036;15.780;2022-10-28T05:28:33;6.93;;;6.50;;
13345;SDS011;6742;48.036;15.780;2022-10-28T05:31:00;6.90;;;6.30;;
13345;SDS011;6742;48.036;15.780;2022-10-28T05:33:27;6.53;;;6.22;;
13345;SDS011;6742;48.036;15.780;2022-10-28T05:35:54;5.90;;;5.50;;
13345;SDS011;6742;48.036;15.780;2022-10-28T05:38:22;6.20;;;5.90;;
13345;SDS011;6742;48.036;15.780;2022-10-28T05:40:52;6.20;;;5.80;;
13345;SDS011;6742;48.036;15.780;2022-10-28T05:43:19;5.90;;;5.50;;
13345;SDS011;6742;48.036;15.780;2022-10-28T05:45:52;5.78;;;5.20;;
13345;SDS011;6742;48.036;15.780;2022-10-28T05:48:19;5.47;;;5.07;;
13345;SDS011;6742;48.036;15.780;2022-10-28T05:50:46;5.70;;;5.30;;
13345;SDS011;6742;48.036;15.780;2022-10-28T05:53:13;5.78;;;5.38;;
13345;SDS011;6742;48.036;15.780;2022-10-28T05:55:42;5.28;;;4.97;;
13345;SDS011;6742;48.036;15.780;2022-10-28T05:58:09;5.90;;;5.50;;
13345;SDS011;6742;48.036;15.780;2022-10-28T06:00:36;6.47;;;6.00;;
13345;SDS011;6742;48.036;15.780;2022-10-28T06:03:03;5.60;;;5.20;;
13345;SDS011;6742;48.036;15.780;2022-10-28T06:05:36;5.82;;;5.32;;
13345;SDS011;6742;48.036;15.780;2022-10-28T06:08:04;5.28;;;4.95;;
13345;SDS011;6742;48.036;15.780;2022-10-28T06:10:31;6.28;;;5.88;;
13345;SDS011;6742;48.036;15.780;2022-10-28T06:13:00;6.53;;;6.13;;
13345;SDS011;6742;48.036;15.780;2022-10-28T06:15:27;7.40;;;6.90;;
13345;SDS011;6742;48.036;15.780;2022-10-28T06:17:54;7.25;;;6.80;;
13345;SDS011;6742;48.036;15.780;2022-10-28T06:20:21;6.75;;;6.35;;
13345;SDS011;6742;48.036;15.780;2022-10-28T06:22:48;6.65;;;6.15;;
13345;SDS011;6742;48.036;15.780;2022-10-28T06:25:16;7.07;;;6.55;;
13345;SDS011;6742;48.036;15.780;2022-10-28T06:27:44;6.82;;;6.43;;
13345;SDS011;6742;48.036;15.780;2022-10-28T06:30:12;6.72;;;6.30;;
13345;SDS011;6742;48.036;15.780;2022-10-28T06:32:39;6.60;;;6.00;;
13345;SDS011;6742;48.036;15.780;2022-10-28T06:35:06;6.95;;;6.35;;
13345;SDS011;6742;48.036;15.780;2022-10-28T06:37:34;6.45;;;6.07;;
13345;SDS011;6742;48.036;15.780;2022-10-28T06:40:01;7.10;;;6.47;;
13345;SDS011;6742;48.036;15.780;2022-10-28T06:42:27;6.82;;;6.32;;
13345;SDS011;6742;48.036;15.780;2022-10-28T06:44:54;6.38;;;5.78;;
13345;SDS011;6742;48.036;15.780;2022-10-28T06:47:23;6.57;;;6.18;;
13345;SDS011;6742;48.036;15.780;2022-10-28T06:49:50;6.53;;;6.13;;
13345;SDS011;6742;48.036;15.780;2022-10-28T06:52:17;5.97;;;5.57;;
13345;SDS011;6742;48.036;15.780;2022-10-28T06:54:44;7.53;;;7.00;;
13345;SDS011;6742;48.036;15.780;2022-10-28T06:57:13;6.72;;;6.18;;
13345;SDS011;6742;48.036;15.780;2022-10-28T06:59:40;6.35;;;5.95;;
13345;SDS011;6742;48.036;15.780;2022-10-28T07:02:08;7.07;;;6.57;;
13345;SDS011;6742;48.036;15.780;2022-10-28T07:04:37;6.55;;;6.15;;
13345;SDS011;6742;48.036;15.780;2022-10-28T07:07:04;6.93;;;6.43;;
13345;SDS011;6742;48.036;15.780;2022-10-28T07:09:31;7.93;;;7.43;;
13345;SDS011;6742;48.036;15.780;2022-10-28T07:11:58;7.65;;;7.13;;
13345;SDS011;6742;48.036;15.780;2022-10-28T07:14:25;6.55;;;5.95;;
13345;SDS011;6742;48.036;15.780;2022-10-28T07:16:52;6.68;;;6.28;;
13345;SDS011;6742;48.036;15.780;2022-10-28T07:19:18;6.32;;;5.72;;
13345;SDS011;6742;48.036;15.780;2022-10-28T07:21:47;4.63;;;4.30;;
13345;SDS011;6742;48.036;15.780;2022-10-28T07:24:14;5.67;;;5.37;;
13345;SDS011;6742;48.036;15.780;2022-10-28T07:26:41;5.37;;;5.07;;
13345;SDS011;6742;48.036;15.780;2022-10-28T07:29:08;5.67;;;5.33;;
13345;SDS011;6742;48.036;15.780;2022-10-28T07:31:35;5.87;;;5.57;;
13345;SDS011;6742;48.036;15.780;2022-10-28T07:34:02;6.00;;;5.60;;
13345;SDS011;6742;48.036;15.780;2022-10-28T07:36:31;6.57;;;6.10;;
13345;SDS011;6742;48.036;15.780;2022-10-28T07:39:00;5.20;;;4.88;;
13345;SDS011;6742;48.036;15.780;2022-10-28T07:41:27;5.60;;;5.10;;
13345;SDS011;6742;48.036;15.780;2022-10-28T07:43:54;5.88;;;5.38;;
13345;SDS011;6742;48.036;15.780;2022-10-28T07:46:21;5.45;;;5.03;;
13345;SDS011;6742;48.036;15.780;2022-10-28T07:48:48;5.57;;;5.22;;
13345;SDS011;6742;48.036;15.780;2022-10-28T07:51:15;5.50;;;5.18;;
13345;SDS011;6742;48.036;15.780;2022-10-28T07:53:42;5.20;;;4.80;;
13345;SDS011;6742;48.036;15.780;2022-10-28T07:56:11;5.72;;;5.22;;
13345;SDS011;6742;48.036;15.780;2022-10-28T07:58:38;5.53;;;5.13;;
13345;SDS011;6742;48.036;15.780;2022-10-28T08:01:07;5.60;;;5.20;;
13345;SDS011;6742;48.036;15.780;2022-10-28T08:03:35;6.70;;;6.10;;
13345;SDS011;6742;48.036;15.780;2022-10-28T08:06:03;6.47;;;5.55;;
13345;SDS011;6742;48.036;15.780;2022-10-28T08:08:32;5.95;;;5.50;;
13345;SDS011;6742;48.036;15.780;2022-10-28T08:11:07;5.07;;;4.70;;
13345;SDS011;6742;48.036;15.780;2022-10-28T08:13:36;5.30;;;4.90;;
13345;SDS011;6742;48.036;15.780;2022-10-28T08:16:03;5.60;;;5.03;;
13345;SDS011;6742;48.036;15.780;2022-10-28T08:18:30;5.80;;;5.30;;
13345;SDS011;6742;48.036;15.780;2022-10-28T08:20:58;5.15;;;4.85;;
13345;SDS011;6742;48.036;15.780;2022-10-28T08:23:25;6.30;;;5.90;;
13345;SDS011;6742;48.036;15.780;2022-10-28T08:25:53;7.80;;;7.20;;
13345;SDS011;6742;48.036;15.780;2022-10-28T08:28:20;6.35;;;5.78;;
13345;SDS011;6742;48.036;15.780;2022-10-28T08:43:16;7.03;;;6.57;;
13345;SDS011;6742;48.036;15.780;2022-10-28T08:45:52;5.83;;;5.30;;
13345;SDS011;6742;48.036;15.780;2022-10-28T08:48:26;5.30;;;4.80;;
13345;SDS011;6742;48.036;15.780;2022-10-28T08:50:57;4.10;;;3.03;;
13345;SDS011;6742;48.036;15.780;2022-10-28T08:55:55;4.43;;;4.03;;
13345;SDS011;6742;48.036;15.780;2022-10-28T08:58:31;6.50;;;4.90;;
13345;SDS011;6742;48.036;15.780;2022-10-28T09:01:02;6.10;;;5.50;;
13345;SDS011;6742;48.036;15.780;2022-10-28T09:03:35;6.20;;;5.70;;
13345;SDS011;6742;48.036;15.780;2022-10-28T09:06:05;5.47;;;4.93;;
13345;SDS011;6742;48.036;15.780;2022-10-28T09:08:34;6.03;;;5.40;;
13345;SDS011;6742;48.036;15.780;2022-10-28T09:14:09;4.30;;;3.90;;
13345;SDS011;6742;48.036;15.780;2022-10-28T09:16:48;6.13;;;5.23;;
13345;SDS011;6742;48.036;15.780;2022-10-28T09:44:44;6.30;;;5.80;;
13345;SDS011;6742;48.036;15.780;2022-10-28T09:47:16;5.95;;;5.50;;
13345;SDS011;6742;48.036;15.780;2022-10-28T09:49:47;6.65;;;6.07;;
13345;SDS011;6742;48.036;15.780;2022-10-28T09:52:21;5.55;;;5.15;;
13345;SDS011;6742;48.036;15.780;2022-10-28T09:54:52;6.20;;;5.63;;
13345;SDS011;6742;48.036;15.780;2022-10-28T09:57:20;6.20;;;5.65;;
13345;SDS011;6742;48.036;15.780;2022-10-28T09:59:49;6.30;;;5.72;;
13345;SDS011;6742;48.036;15.780;2022-10-28T10:02:26;5.68;;;5.28;;
13345;SDS011;6742;48.036;15.780;2022-10-28T10:04:58;6.47;;;5.50;;
13345;SDS011;6742;48.036;15.780;2022-10-28T10:07:28;5.45;;;5.03;;
13345;SDS011;6742;48.036;15.780;2022-10-28T10:10:01;5.72;;;5.20;;
13345;SDS011;6742;48.036;15.780;2022-10-28T10:12:31;6.20;;;5.60;;
13345;SDS011;6742;48.036;15.780;2022-10-28T10:14:59;6.45;;;5.88;;
13345;SDS011;6742;48.036;15.780;2022-10-28T10:17:31;5.63;;;5.13;;
13345;SDS011;6742;48.036;15.780;2022-10-28T10:20:05;5.80;;;5.40;;
13345;SDS011;6742;48.036;15.780;2022-10-28T10:22:34;6.85;;;5.68;;
13345;SDS011;6742;48.036;15.780;2022-10-28T10:25:02;6.05;;;5.55;;
13345;SDS011;6742;48.036;15.780;2022-10-28T10:27:49;5.40;;;5.00;;
13345;SDS011;6742;48.036;15.780;2022-10-28T10:30:19;5.78;;;5.30;;
13345;SDS011;6742;48.036;15.780;2022-10-28T10:32:54;6.30;;;5.70;;
13345;SDS011;6742;48.036;15.780;2022-10-28T10:35:23;5.40;;;5.00;;
13345;SDS011;6742;48.036;15.780;2022-10-28T10:37:54;4.80;;;4.50;;
13345;SDS011;6742;48.036;15.780;2022-10-28T10:40:23;5.10;;;4.70;;
13345;SDS011;6742;48.036;15.780;2022-10-28T10:42:51;5.47;;;4.97;;
13345;SDS011;6742;48.036;15.780;2022-10-28T10:45:26;5.70;;;5.20;;
13345;SDS011;6742;48.036;15.780;2022-10-28T10:48:10;5.47;;;4.97;;
13345;SDS011;6742;48.036;15.780;2022-10-28T10:50:39;5.88;;;5.40;;
13345;SDS011;6742;48.036;15.780;2022-10-28T10:53:14;5.57;;;5.18;;
13345;SDS011;6742;48.036;15.780;2022-10-28T10:55:47;5.93;;;5.43;;
13345;SDS011;6742;48.036;15.780;2022-10-28T10:58:17;5.65;;;5.25;;
13345;SDS011;6742;48.036;15.780;2022-10-28T11:00:47;5.65;;;5.25;;
13345;SDS011;6742;48.036;15.780;2022-10-28T11:03:17;5.90;;;5.40;;
13345;SDS011;6742;48.036;15.780;2022-10-28T11:05:49;5.82;;;5.25;;
13345;SDS011;6742;48.036;15.780;2022-10-28T11:08:30;6.05;;;5.55;;
13345;SDS011;6742;48.036;15.780;2022-10-28T11:11:07;6.07;;;5.57;;
13345;SDS011;6742;48.036;15.780;2022-10-28T11:13:39;7.45;;;5.97;;
13345;SDS011;6742;48.036;15.780;2022-10-28T11:16:16;6.50;;;5.90;;
13345;SDS011;6742;48.036;15.780;2022-10-28T11:18:46;6.90;;;6.28;;
13345;SDS011;6742;48.036;15.780;2022-10-28T11:21:20;6.38;;;5.88;;
13345;SDS011;6742;48.036;15.780;2022-10-28T12:00:31;6.27;;;5.83;;
13345;SDS011;6742;48.036;15.780;2022-10-28T12:03:17;6.47;;;5.73;;
13345;SDS011;6742;48.036;15.780;2022-10-28T12:05:59;6.97;;;6.47;;
13345;SDS011;6742;48.036;15.780;2022-10-28T12:08:37;5.67;;;5.37;;
13345;SDS011;6742;48.036;15.780;2022-10-28T12:11:15;6.30;;;5.80;;
13345;SDS011;6742;48.036;15.780;2022-10-28T12:13:52;6.83;;;6.33;;
13345;SDS011;6742;48.036;15.780;2022-10-28T12:16:29;5.90;;;5.53;;
13345;SDS011;6742;48.036;15.780;2022-10-28T12:21:34;6.47;;;5.97;;
13345;SDS011;6742;48.036;15.780;2022-10-28T12:24:05;6.23;;;5.83;;
13345;SDS011;6742;48.036;15.780;2022-10-28T12:26:39;7.30;;;6.90;;
13345;SDS011;6742;48.036;15.780;2022-10-28T13:30:22;8.93;;;8.33;;
13345;SDS011;6742;48.036;15.780;2022-10-28T13:32:51;8.03;;;7.53;;
13345;SDS011;6742;48.036;15.780;2022-10-28T13:37:56;8.47;;;7.87;;
13345;SDS011;6742;48.036;15.780;2022-10-28T13:48:17;9.00;;;8.30;;
13345;SDS011;6742;48.036;15.780;2022-10-28T14:32:42;8.32;;;7.70;;
13345;SDS011;6742;48.036;15.780;2022-10-28T15:29:33;12.98;;;11.93;;
13345;SDS011;6742;48.036;15.780;2022-10-28T15:32:11;13.02;;;12.13;;
13345;SDS011;6742;48.036;15.780;2022-10-28T15:34:40;12.75;;;11.70;;
13345;SDS011;6742;48.036;15.780;2022-10-28T15:37:08;13.88;;;12.98;;
13345;SDS011;6742;48.036;15.780;2022-10-28T15:39:36;16.42;;;15.10;;
13345;SDS011;6742;48.036;15.780;2022-10-28T15:42:09;16.52;;;15.32;;
13345;SDS011;6742;48.036;15.780;2022-10-28T15:44:58;14.32;;;13.30;;
13345;SDS011;6742;48.036;15.780;2022-10-28T15:47:27;16.70;;;15.45;;
13345;SDS011;6742;48.036;15.780;2022-10-28T15:49:58;17.77;;;16.30;;
13345;SDS011;6742;48.036;15.780;2022-10-28T15:52:31;18.42;;;16.92;;
13345;SDS011;6742;48.036;15.780;2022-10-28T15:57:53;13.55;;;12.55;;
13345;SDS011;6742;48.036;15.780;2022-10-28T16:00:23;27.33;;;25.13;;
13345;SDS011;6742;48.036;15.780;2022-10-28T16:02:52;27.85;;;25.48;;
13345;SDS011;6742;48.036;15.780;2022-10-28T16:08:19;40.47;;;37.17;;
13345;SDS011;6742;48.036;15.780;2022-10-28T18:52:13;18.17;;;16.48;;
13345;SDS011;6742;48.036;15.780;2022-10-28T18:59:51;16.67;;;15.15;;
13345;SDS011;6742;48.036;15.780;2022-10-28T19:02:21;17.10;;;15.50;;
13345;SDS011;6742;48.036;15.780;2022-10-28T19:04:48;15.83;;;14.37;;
13345;SDS011;6742;48.036;15.780;2022-10-28T19:33:10;15.70;;;14.20;;
13345;SDS011;6742;48.036;15.780;2022-10-28T19:35:37;14.75;;;13.50;;
13345;SDS011;6742;48.036;15.780;2022-10-28T19:43:15;15.43;;;14.00;;
13345;SDS011;6742;48.036;15.780;2022-10-28T20:03:48;15.95;;;14.50;;
13345;SDS011;6742;48.036;15.780;2022-10-28T20:14:02;17.33;;;15.82;;
13345;SDS011;6742;48.036;15.780;2022-10-28T20:19:09;16.70;;;15.23;;
13345;SDS011;6742;48.036;15.780;2022-10-28T20:21:36;17.40;;;15.90;;
13345;SDS011;6742;48.036;15.780;2022-10-28T20:26:38;17.10;;;15.68;;
13345;SDS011;6742;48.036;15.780;2022-10-28T20:29:05;16.52;;;14.90;;
13345;SDS011;6742;48.036;15.780;2022-10-28T20:47:07;15.35;;;14.05;;
13345;SDS011;6742;48.036;15.780;2022-10-28T20:49:34;15.88;;;14.50;;
13345;SDS011;6742;48.036;15.780;2022-10-28T20:52:06;15.77;;;14.48;;
13345;SDS011;6742;48.036;15.780;2022-10-28T20:59:41;15.35;;;14.05;;
13345;SDS011;6742;48.036;15.780;2022-10-28T21:02:09;14.77;;;13.57;;
13345;SDS011;6742;48.036;15.780;2022-10-28T21:07:11;16.63;;;15.18;;
13345;SDS011;6742;48.036;15.780;2022-10-28T21:12:11;13.80;;;12.82;;
13345;SDS011;6742;48.036;15.780;2022-10-28T21:14:38;15.13;;;14.00;;
13345;SDS011;6742;48.036;15.780;2022-10-28T21:17:05;15.55;;;14.30;;
13345;SDS011;6742;48.036;15.780;2022-10-28T21:22:10;15.55;;;14.38;;
13345;SDS011;6742;48.036;15.780;2022-10-28T21:27:14;14.45;;;13.35;;
13345;SDS011;6742;48.036;15.780;2022-10-28T21:29:41;14.48;;;13.48;;
13345;SDS011;6742;48.036;15.780;2022-10-28T21:32:08;13.40;;;12.50;;
13345;SDS011;6742;48.036;15.780;2022-10-28T21:34:35;12.85;;;11.95;;
13345;SDS011;6742;48.036;15.780;2022-10-28T21:37:02;13.05;;;12.05;;
13345;SDS011;6742;48.036;15.780;2022-10-28T21:39:31;14.35;;;13.20;;
13345;SDS011;6742;48.036;15.780;2022-10-28T21:41:59;14.68;;;13.57;;
13345;SDS011;6742;48.036;15.780;2022-10-28T21:44:26;13.95;;;12.77;;
13345;SDS011;6742;48.036;15.780;2022-10-28T21:46:53;13.88;;;12.88;;
13345;SDS011;6742;48.036;15.780;2022-10-28T21:49:20;13.65;;;12.60;;
13345;SDS011;6742;48.036;15.780;2022-10-28T21:51:47;13.90;;;12.90;;
13345;SDS011;6742;48.036;15.780;2022-10-28T21:54:14;14.05;;;12.95;;
13345;SDS011;6742;48.036;15.780;2022-10-28T21:56:43;14.23;;;13.15;;
13345;SDS011;6742;48.036;15.780;2022-10-28T21:59:10;14.27;;;13.27;;
13345;SDS011;6742;48.036;15.780;2022-10-28T22:01:37;14.52;;;13.43;;
13345;SDS011;6742;48.036;15.780;2022-10-28T22:04:04;14.15;;;13.05;;
13345;SDS011;6742;48.036;15.780;2022-10-28T22:06:31;13.05;;;12.13;;
13345;SDS011;6742;48.036;15.780;2022-10-28T22:08:58;13.17;;;12.27;;
13345;SDS011;6742;48.036;15.780;2022-10-28T22:11:27;13.73;;;12.73;;
13345;SDS011;6742;48.036;15.780;2022-10-28T22:13:57;13.32;;;12.43;;
13345;SDS011;6742;48.036;15.780;2022-10-28T22:16:28;12.88;;;11.98;;
13345;SDS011;6742;48.036;15.780;2022-10-28T22:18:56;12.35;;;11.55;;
13345;SDS011;6742;48.036;15.780;2022-10-28T22:21:24;12.93;;;12.02;;
13345;SDS011;6742;48.036;15.780;2022-10-28T22:23:53;11.88;;;11.07;;
13345;SDS011;6742;48.036;15.780;2022-10-28T22:26:21;13.77;;;12.77;;
13345;SDS011;6742;48.036;15.780;2022-10-28T22:28:49;12.60;;;11.60;;
13345;SDS011;6742;48.036;15.780;2022-10-28T22:31:18;12.60;;;11.70;;
13345;SDS011;6742;48.036;15.780;2022-10-28T22:33:47;12.70;;;11.80;;
13345;SDS011;6742;48.036;15.780;2022-10-28T22:36:15;12.63;;;11.73;;
13345;SDS011;6742;48.036;15.780;2022-10-28T22:38:43;11.90;;;11.10;;
13345;SDS011;6742;48.036;15.780;2022-10-28T22:41:11;12.03;;;11.23;;
13345;SDS011;6742;48.036;15.780;2022-10-28T22:43:40;12.55;;;11.73;;
13345;SDS011;6742;48.036;15.780;2022-10-28T22:46:07;11.98;;;11.27;;
13345;SDS011;6742;48.036;15.780;2022-10-28T22:48:37;12.65;;;11.75;;
13345;SDS011;6742;48.036;15.780;2022-10-28T22:51:04;11.73;;;10.90;;
13345;SDS011;6742;48.036;15.780;2022-10-28T22:53:33;11.82;;;11.07;;
13345;SDS011;6742;48.036;15.780;2022-10-28T22:56:01;12.05;;;11.25;;
13345;SDS011;6742;48.036;15.780;2022-10-28T22:58:28;11.70;;;10.85;;
13345;SDS011;6742;48.036;15.780;2022-10-28T23:01:05;11.95;;;11.15;;
13345;SDS011;6742;48.036;15.780;2022-10-28T23:03:33;11.38;;;10.63;;
13345;SDS011;6742;48.036;15.780;2022-10-28T23:06:06;12.02;;;11.13;;
13345;SDS011;6742;48.036;15.780;2022-10-28T23:08:34;11.90;;;11.05;;
13345;SDS011;6742;48.036;15.780;2022-10-28T23:11:02;11.67;;;10.87;;
13345;SDS011;6742;48.036;15.780;2022-10-28T23:13:29;12.05;;;11.10;;
13345;SDS011;6742;48.036;15.780;2022-10-28T23:16:01;13.27;;;12.38;;
13345;SDS011;6742;48.036;15.780;2022-10-28T23:18:28;12.68;;;11.88;;
13345;SDS011;6742;48.036;15.780;2022-10-28T23:20:57;12.30;;;11.57;;
13345;SDS011;6742;48.036;15.780;2022-10-28T23:23:29;11.02;;;10.40;;
13345;SDS011;6742;48.036;15.780;2022-10-28T23:25:56;12.40;;;11.50;;
13345;SDS011;6742;48.036;15.780;2022-10-28T23:28:22;11.98;;;11.27;;
13345;SDS011;6742;48.036;15.780;2022-10-28T23:30:49;11.77;;;11.07;;
13345;SDS011;6742;48.036;15.780;2022-10-28T23:33:16;12.55;;;11.82;;
13345;SDS011;6742;48.036;15.780;2022-10-28T23:35:43;11.73;;;10.93;;